Krusevac, Serbia
Current Conditions -  °F | °C
As of 4:00 PM on Wednesday 22 Oct 2014 (Local Time) from LYNI Reporting Station
Broken Clouds Broken Clouds  
Wind Chill: 50°   Ceiling: 3700
Heat Index: 50°   Visibility: 6mi
Dew Point: 43°   Wind: 24mph
Humidity: 76%   Direction: 320°NW
Pressure: 29.62"   Gusts: 39mph
Location:  43.58°N, 21.32°E
Report Text: LYNI 221400Z 32021G34KT 9999 FEW017 BKN037 10/06 Q1003 NOSIG
Loading
Personal Weather Stations






























Interactive Weather Map
Tropical Storm Tracking
New forecast layout! Learn more

10-Day Weather Forecast

Advertisements
Track Severe Weather on mobile